sensor_id;sensor_type;location;lat;lon;timestamp;pressure;altitude;pressure_sealevel;temperature;humidity
45078;BME280;60508;42.622;25.416;2023-06-22T00:00:29;97095.19;;;22.46;66.09
45078;BME280;60508;42.622;25.416;2023-06-22T00:02:55;97098.31;;;22.53;65.72
45078;BME280;60508;42.622;25.416;2023-06-22T00:05:22;97101.69;;;22.50;65.98
45078;BME280;60508;42.622;25.416;2023-06-22T00:07:48;97105.09;;;22.55;65.76
45078;BME280;60508;42.622;25.416;2023-06-22T00:10:23;97091.69;;;22.54;66.05
45078;BME280;60508;42.622;25.416;2023-06-22T00:12:49;97092.31;;;22.51;66.42
45078;BME280;60508;42.622;25.416;2023-06-22T00:15:16;97100.06;;;22.49;66.44
45078;BME280;60508;42.622;25.416;2023-06-22T00:17:42;97092.47;;;22.46;66.90
45078;BME280;60508;42.622;25.416;2023-06-22T00:20:17;97092.28;;;22.42;66.61
45078;BME280;60508;42.622;25.416;2023-06-22T00:22:46;97091.09;;;22.34;66.61
45078;BME280;60508;42.622;25.416;2023-06-22T00:25:14;97099.00;;;22.36;66.48
45078;BME280;60508;42.622;25.416;2023-06-22T00:27:48;97092.72;;;22.35;66.02
45078;BME280;60508;42.622;25.416;2023-06-22T00:30:18;97105.50;;;22.26;66.35
45078;BME280;60508;42.622;25.416;2023-06-22T00:32:45;97104.03;;;22.20;66.47
45078;BME280;60508;42.622;25.416;2023-06-22T00:35:21;97102.22;;;22.15;66.50
45078;BME280;60508;42.622;25.416;2023-06-22T00:37:48;97115.91;;;22.15;66.63
45078;BME280;60508;42.622;25.416;2023-06-22T00:40:14;97118.72;;;22.24;66.54
45078;BME280;60508;42.622;25.416;2023-06-22T00:42:42;97114.00;;;22.38;66.09
45078;BME280;60508;42.622;25.416;2023-06-22T00:45:09;97114.69;;;22.44;65.67
45078;BME280;60508;42.622;25.416;2023-06-22T00:47:36;97115.88;;;22.52;65.93
45078;BME280;60508;42.622;25.416;2023-06-22T00:50:06;97117.59;;;22.48;66.33
45078;BME280;60508;42.622;25.416;2023-06-22T00:52:40;97120.03;;;22.49;66.56
45078;BME280;60508;42.622;25.416;2023-06-22T00:55:10;97120.91;;;22.36;67.65
45078;BME280;60508;42.622;25.416;2023-06-22T00:57:37;97116.22;;;22.36;67.11
45078;BME280;60508;42.622;25.416;2023-06-22T01:00:05;97106.09;;;22.14;67.18
45078;BME280;60508;42.622;25.416;2023-06-22T01:02:35;97120.69;;;22.10;67.41
45078;BME280;60508;42.622;25.416;2023-06-22T01:05:17;97108.28;;;21.53;69.53
45078;BME280;60508;42.622;25.416;2023-06-22T01:13:10;97089.88;;;20.75;72.82
45078;BME280;60508;42.622;25.416;2023-06-22T01:15:45;97095.84;;;20.77;72.86
45078;BME280;60508;42.622;25.416;2023-06-22T01:18:17;97098.53;;;20.64;73.50
45078;BME280;60508;42.622;25.416;2023-06-22T01:20:44;97087.69;;;20.58;73.36
45078;BME280;60508;42.622;25.416;2023-06-22T01:23:53;97092.31;;;20.77;72.73
45078;BME280;60508;42.622;25.416;2023-06-22T01:26:37;97084.66;;;20.60;73.26
45078;BME280;60508;42.622;25.416;2023-06-22T01:29:05;97085.72;;;20.64;73.64
45078;BME280;60508;42.622;25.416;2023-06-22T01:31:34;97079.44;;;20.64;73.70
45078;BME280;60508;42.622;25.416;2023-06-22T01:34:05;97076.41;;;20.65;73.61
45078;BME280;60508;42.622;25.416;2023-06-22T01:36:33;97082.53;;;20.57;73.92
45078;BME280;60508;42.622;25.416;2023-06-22T01:39:02;97081.09;;;20.46;74.50
45078;BME280;60508;42.622;25.416;2023-06-22T01:41:30;97081.56;;;20.34;75.07
45078;BME280;60508;42.622;25.416;2023-06-22T01:43:59;97078.66;;;20.44;74.58
45078;BME280;60508;42.622;25.416;2023-06-22T01:46:26;97075.22;;;20.52;74.17
45078;BME280;60508;42.622;25.416;2023-06-22T01:49:02;97076.63;;;20.69;73.52
45078;BME280;60508;42.622;25.416;2023-06-22T01:51:29;97080.47;;;20.82;73.19
45078;BME280;60508;42.622;25.416;2023-06-22T01:54:00;97076.03;;;21.00;72.21
45078;BME280;60508;42.622;25.416;2023-06-22T01:56:27;97080.66;;;21.13;71.64
45078;BME280;60508;42.622;25.416;2023-06-22T01:59:11;97092.22;;;21.24;70.84
45078;BME280;60508;42.622;25.416;2023-06-22T02:01:44;97089.88;;;21.17;71.18
45078;BME280;60508;42.622;25.416;2023-06-22T02:04:24;97090.56;;;21.23;71.34
45078;BME280;60508;42.622;25.416;2023-06-22T02:06:56;97087.03;;;21.22;71.08
45078;BME280;60508;42.622;25.416;2023-06-22T02:09:25;97096.25;;;21.12;71.70
45078;BME280;60508;42.622;25.416;2023-06-22T02:12:04;97095.66;;;21.15;71.57
45078;BME280;60508;42.622;25.416;2023-06-22T02:14:33;97105.06;;;21.09;71.70
45078;BME280;60508;42.622;25.416;2023-06-22T02:17:01;97105.44;;;20.89;73.08
45078;BME280;60508;42.622;25.416;2023-06-22T02:19:27;97107.28;;;20.60;75.10
45078;BME280;60508;42.622;25.416;2023-06-22T02:22:02;97106.34;;;20.37;76.21
45078;BME280;60508;42.622;25.416;2023-06-22T02:24:29;97080.81;;;20.14;76.92
45078;BME280;60508;42.622;25.416;2023-06-22T02:26:59;97103.06;;;20.21;77.02
45078;BME280;60508;42.622;25.416;2023-06-22T02:29:32;97104.09;;;20.25;77.01
45078;BME280;60508;42.622;25.416;2023-06-22T02:31:59;97096.91;;;20.30;76.66
45078;BME280;60508;42.622;25.416;2023-06-22T02:34:26;97108.13;;;20.28;76.49
45078;BME280;60508;42.622;25.416;2023-06-22T02:36:59;97105.56;;;20.18;76.94
45078;BME280;60508;42.622;25.416;2023-06-22T02:39:27;97105.22;;;20.05;77.82
45078;BME280;60508;42.622;25.416;2023-06-22T02:41:54;97097.03;;;20.05;77.63
45078;BME280;60508;42.622;25.416;2023-06-22T02:44:28;97102.72;;;20.09;77.38
45078;BME280;60508;42.622;25.416;2023-06-22T02:46:55;97113.03;;;20.12;77.04
45078;BME280;60508;42.622;25.416;2023-06-22T02:49:22;97102.34;;;20.16;76.66
45078;BME280;60508;42.622;25.416;2023-06-22T02:51:57;97117.22;;;20.23;75.96
45078;BME280;60508;42.622;25.416;2023-06-22T02:54:25;97111.69;;;20.29;75.57
45078;BME280;60508;42.622;25.416;2023-06-22T02:56:54;97111.09;;;20.32;75.00
45078;BME280;60508;42.622;25.416;2023-06-22T02:59:22;97111.78;;;20.37;74.95
45078;BME280;60508;42.622;25.416;2023-06-22T03:01:52;97109.56;;;20.39;75.04
45078;BME280;60508;42.622;25.416;2023-06-22T03:04:31;97107.97;;;20.52;74.37
45078;BME280;60508;42.622;25.416;2023-06-22T03:06:58;97113.72;;;20.70;73.13
45078;BME280;60508;42.622;25.416;2023-06-22T03:09:28;97114.09;;;20.63;72.80
45078;BME280;60508;42.622;25.416;2023-06-22T03:12:06;97104.06;;;20.45;73.42
45078;BME280;60508;42.622;25.416;2023-06-22T03:14:41;97116.56;;;20.46;72.79
45078;BME280;60508;42.622;25.416;2023-06-22T03:17:07;97118.59;;;20.40;72.98
45078;BME280;60508;42.622;25.416;2023-06-22T03:19:34;97119.88;;;20.42;72.50
45078;BME280;60508;42.622;25.416;2023-06-22T03:22:01;97113.34;;;20.43;72.38
45078;BME280;60508;42.622;25.416;2023-06-22T03:24:36;97119.50;;;20.49;72.44
45078;BME280;60508;42.622;25.416;2023-06-22T03:27:05;97128.63;;;20.45;72.74
45078;BME280;60508;42.622;25.416;2023-06-22T03:29:34;97120.38;;;20.31;73.28
45078;BME280;60508;42.622;25.416;2023-06-22T03:32:08;97123.47;;;20.24;73.81
45078;BME280;60508;42.622;25.416;2023-06-22T03:34:35;97121.81;;;20.09;74.25
45078;BME280;60508;42.622;25.416;2023-06-22T03:37:04;97124.84;;;19.88;75.24
45078;BME280;60508;42.622;25.416;2023-06-22T03:39:31;97116.88;;;19.92;75.12
45078;BME280;60508;42.622;25.416;2023-06-22T03:41:58;97127.19;;;19.95;75.19
45078;BME280;60508;42.622;25.416;2023-06-22T03:44:33;97126.31;;;20.00;75.35
45078;BME280;60508;42.622;25.416;2023-06-22T03:47:00;97124.72;;;19.80;75.82
45078;BME280;60508;42.622;25.416;2023-06-22T03:49:28;97134.13;;;19.87;75.50
45078;BME280;60508;42.622;25.416;2023-06-22T03:52:02;97129.03;;;20.00;75.00
45078;BME280;60508;42.622;25.416;2023-06-22T03:54:29;97124.38;;;20.00;75.11
45078;BME280;60508;42.622;25.416;2023-06-22T03:56:57;97125.13;;;20.06;74.98
45078;BME280;60508;42.622;25.416;2023-06-22T03:59:33;97129.34;;;19.98;75.46
45078;BME280;60508;42.622;25.416;2023-06-22T04:01:59;97121.16;;;19.98;76.13
45078;BME280;60508;42.622;25.416;2023-06-22T04:04:26;97127.41;;;20.18;75.96
45078;BME280;60508;42.622;25.416;2023-06-22T04:06:52;97111.78;;;20.23;75.56
45078;BME280;60508;42.622;25.416;2023-06-22T04:09:19;97115.66;;;20.36;75.16
45078;BME280;60508;42.622;25.416;2023-06-22T04:11:55;97102.00;;;20.36;74.56
45078;BME280;60508;42.622;25.416;2023-06-22T04:14:21;97119.44;;;20.54;75.51
45078;BME280;60508;42.622;25.416;2023-06-22T04:16:48;97112.91;;;20.69;74.42
45078;BME280;60508;42.622;25.416;2023-06-22T04:19:23;97120.31;;;20.83;74.41
45078;BME280;60508;42.622;25.416;2023-06-22T04:21:49;97125.81;;;20.96;74.25
45078;BME280;60508;42.622;25.416;2023-06-22T04:24:16;97124.19;;;21.09;72.43
45078;BME280;60508;42.622;25.416;2023-06-22T04:26:42;97133.50;;;21.22;70.23
45078;BME280;60508;42.622;25.416;2023-06-22T04:29:21;97133.09;;;21.29;69.90
45078;BME280;60508;42.622;25.416;2023-06-22T04:31:56;97137.03;;;21.23;69.67
45078;BME280;60508;42.622;25.416;2023-06-22T04:34:25;97136.13;;;21.27;69.33
45078;BME280;60508;42.622;25.416;2023-06-22T04:36:52;97131.25;;;21.24;69.48
45078;BME280;60508;42.622;25.416;2023-06-22T04:39:19;97140.56;;;21.37;68.98
45078;BME280;60508;42.622;25.416;2023-06-22T04:41:45;97139.84;;;21.45;68.57
45078;BME280;60508;42.622;25.416;2023-06-22T04:44:16;97149.31;;;21.53;68.09
45078;BME280;60508;42.622;25.416;2023-06-22T04:46:54;97148.47;;;21.52;68.55
45078;BME280;60508;42.622;25.416;2023-06-22T04:49:26;97141.66;;;21.64;68.29
45078;BME280;60508;42.622;25.416;2023-06-22T04:52:00;97150.66;;;21.78;67.88
45078;BME280;60508;42.622;25.416;2023-06-22T04:54:26;97142.88;;;21.85;67.93
45078;BME280;60508;42.622;25.416;2023-06-22T04:57:04;97133.97;;;22.02;67.36
45078;BME280;60508;42.622;25.416;2023-06-22T04:59:37;97140.34;;;22.12;67.05
45078;BME280;60508;42.622;25.416;2023-06-22T05:02:11;97141.91;;;22.27;66.75
45078;BME280;60508;42.622;25.416;2023-06-22T05:04:38;97145.88;;;22.20;67.28
45078;BME280;60508;42.622;25.416;2023-06-22T05:07:05;97148.72;;;22.29;67.30
45078;BME280;60508;42.622;25.416;2023-06-22T05:09:31;97142.00;;;22.35;67.00
45078;BME280;60508;42.622;25.416;2023-06-22T05:12:00;97141.19;;;22.35;66.76
45078;BME280;60508;42.622;25.416;2023-06-22T05:14:31;97145.97;;;22.52;66.22
45078;BME280;60508;42.622;25.416;2023-06-22T05:16:58;97141.72;;;22.68;65.72
45078;BME280;60508;42.622;25.416;2023-06-22T05:19:33;97147.19;;;22.68;65.85
45078;BME280;60508;42.622;25.416;2023-06-22T05:22:00;97149.19;;;22.76;66.01
45078;BME280;60508;42.622;25.416;2023-06-22T05:24:27;97139.53;;;22.79;66.00
45078;BME280;60508;42.622;25.416;2023-06-22T05:26:54;97141.06;;;22.94;65.48
45078;BME280;60508;42.622;25.416;2023-06-22T05:29:21;97145.22;;;22.91;65.58
45078;BME280;60508;42.622;25.416;2023-06-22T05:31:49;97143.56;;;22.82;66.14
45078;BME280;60508;42.622;25.416;2023-06-22T05:34:15;97144.81;;;22.98;65.55
45078;BME280;60508;42.622;25.416;2023-06-22T05:36:42;97143.91;;;23.11;64.92
45078;BME280;60508;42.622;25.416;2023-06-22T05:39:14;97141.34;;;23.15;65.07
45078;BME280;60508;42.622;25.416;2023-06-22T05:41:41;97155.06;;;23.24;64.70
45078;BME280;60508;42.622;25.416;2023-06-22T05:44:09;97148.31;;;23.30;64.50
45078;BME280;60508;42.622;25.416;2023-06-22T05:46:43;97144.84;;;23.56;63.30
45078;BME280;60508;42.622;25.416;2023-06-22T05:49:14;97142.63;;;23.75;62.82
45078;BME280;60508;42.622;25.416;2023-06-22T05:51:42;97146.38;;;23.88;62.06
45078;BME280;60508;42.622;25.416;2023-06-22T05:54:08;97146.09;;;24.07;61.43
45078;BME280;60508;42.622;25.416;2023-06-22T05:56:35;97153.97;;;24.17;60.86
45078;BME280;60508;42.622;25.416;2023-06-22T05:59:11;97157.06;;;24.07;58.57
45078;BME280;60508;42.622;25.416;2023-06-22T06:01:38;97164.66;;;24.10;59.59
45078;BME280;60508;42.622;25.416;2023-06-22T06:04:06;97149.94;;;24.23;60.07
45078;BME280;60508;42.622;25.416;2023-06-22T06:06:43;97151.56;;;24.51;59.73
45078;BME280;60508;42.622;25.416;2023-06-22T06:09:09;97132.31;;;24.68;59.27
45078;BME280;60508;42.622;25.416;2023-06-22T06:11:38;97143.88;;;24.91;59.34
45078;BME280;60508;42.622;25.416;2023-06-22T06:14:04;97147.09;;;25.02;58.42
45078;BME280;60508;42.622;25.416;2023-06-22T06:16:31;97136.28;;;24.97;57.55
45078;BME280;60508;42.622;25.416;2023-06-22T06:19:07;97138.84;;;25.02;59.05
45078;BME280;60508;42.622;25.416;2023-06-22T06:21:33;97146.06;;;25.15;59.73
45078;BME280;60508;42.622;25.416;2023-06-22T06:24:00;97145.53;;;25.22;59.24
45078;BME280;60508;42.622;25.416;2023-06-22T06:26:27;97129.53;;;25.24;59.83
45078;BME280;60508;42.622;25.416;2023-06-22T06:29:00;97146.13;;;25.45;59.89
45078;BME280;60508;42.622;25.416;2023-06-22T06:31:26;97138.47;;;25.51;59.39
45078;BME280;60508;42.622;25.416;2023-06-22T06:33:55;97146.97;;;25.67;58.72
45078;BME280;60508;42.622;25.416;2023-06-22T06:36:21;97149.16;;;25.82;58.67
45078;BME280;60508;42.622;25.416;2023-06-22T06:38:48;97153.09;;;25.73;57.32
45078;BME280;60508;42.622;25.416;2023-06-22T06:41:15;97153.19;;;25.55;57.96
45078;BME280;60508;42.622;25.416;2023-06-22T06:43:42;97160.69;;;25.46;58.12
45078;BME280;60508;42.622;25.416;2023-06-22T06:46:11;97165.34;;;25.54;58.02
45078;BME280;60508;42.622;25.416;2023-06-22T06:48:38;97152.38;;;25.55;58.41
45078;BME280;60508;42.622;25.416;2023-06-22T06:51:05;97156.41;;;25.57;58.50
45078;BME280;60508;42.622;25.416;2023-06-22T06:53:41;97143.13;;;25.59;59.00
45078;BME280;60508;42.622;25.416;2023-06-22T06:56:07;97152.06;;;25.77;58.57
45078;BME280;60508;42.622;25.416;2023-06-22T06:58:36;97148.06;;;25.96;58.75
45078;BME280;60508;42.622;25.416;2023-06-22T07:01:03;97145.47;;;25.99;58.04
45078;BME280;60508;42.622;25.416;2023-06-22T07:03:37;97143.06;;;25.98;57.66
45078;BME280;60508;42.622;25.416;2023-06-22T07:06:04;97144.41;;;26.13;57.71
45078;BME280;60508;42.622;25.416;2023-06-22T07:08:30;97143.94;;;26.32;57.10
45078;BME280;60508;42.622;25.416;2023-06-22T07:10:57;97150.06;;;26.50;57.44
45078;BME280;60508;42.622;25.416;2023-06-22T07:13:24;97150.13;;;26.62;56.79
45078;BME280;60508;42.622;25.416;2023-06-22T07:15:50;97147.03;;;26.64;54.23
45078;BME280;60508;42.622;25.416;2023-06-22T07:18:25;97149.41;;;26.53;53.30
45078;BME280;60508;42.622;25.416;2023-06-22T07:20:52;97137.88;;;26.38;53.86
45078;BME280;60508;42.622;25.416;2023-06-22T07:23:19;97157.22;;;26.51;54.23
45078;BME280;60508;42.622;25.416;2023-06-22T07:25:46;97147.81;;;26.52;53.36
45078;BME280;60508;42.622;25.416;2023-06-22T07:28:12;97150.00;;;26.58;54.20
45078;BME280;60508;42.622;25.416;2023-06-22T07:30:40;97142.66;;;26.63;53.29
45078;BME280;60508;42.622;25.416;2023-06-22T07:33:06;97145.38;;;26.71;53.54
45078;BME280;60508;42.622;25.416;2023-06-22T07:35:34;97154.47;;;26.84;53.24
45078;BME280;60508;42.622;25.416;2023-06-22T07:38:10;97146.28;;;26.75;52.10
45078;BME280;60508;42.622;25.416;2023-06-22T07:40:39;97127.13;;;26.58;52.19
45078;BME280;60508;42.622;25.416;2023-06-22T07:43:08;97134.34;;;26.71;52.34
45078;BME280;60508;42.622;25.416;2023-06-22T07:45:34;97145.50;;;26.75;52.00
45078;BME280;60508;42.622;25.416;2023-06-22T07:48:01;97149.16;;;26.79;52.35
45078;BME280;60508;42.622;25.416;2023-06-22T07:50:35;97145.88;;;26.86;50.97
45078;BME280;60508;42.622;25.416;2023-06-22T07:53:02;97141.66;;;27.01;53.69
45078;BME280;60508;42.622;25.416;2023-06-22T07:55:29;97148.09;;;27.17;54.68
45078;BME280;60508;42.622;25.416;2023-06-22T07:57:56;97146.53;;;27.41;52.73
45078;BME280;60508;42.622;25.416;2023-06-22T08:00:22;97142.97;;;27.53;52.44
45078;BME280;60508;42.622;25.416;2023-06-22T08:02:49;97151.94;;;27.62;49.97
45078;BME280;60508;42.622;25.416;2023-06-22T08:05:24;97152.63;;;27.59;50.16
45078;BME280;60508;42.622;25.416;2023-06-22T08:07:51;97156.97;;;27.60;49.28
45078;BME280;60508;42.622;25.416;2023-06-22T08:10:19;97152.03;;;27.65;49.65
45078;BME280;60508;42.622;25.416;2023-06-22T08:12:45;97160.19;;;27.74;50.36
45078;BME280;60508;42.622;25.416;2023-06-22T08:15:12;97152.13;;;27.81;50.72
45078;BME280;60508;42.622;25.416;2023-06-22T08:17:38;97154.91;;;27.81;49.56
45078;BME280;60508;42.622;25.416;2023-06-22T08:20:06;97148.59;;;27.81;49.62
45078;BME280;60508;42.622;25.416;2023-06-22T08:22:37;97148.94;;;27.79;49.65
45078;BME280;60508;42.622;25.416;2023-06-22T08:25:11;97130.63;;;27.75;49.69
45078;BME280;60508;42.622;25.416;2023-06-22T08:27:39;97132.13;;;27.72;49.77
45078;BME280;60508;42.622;25.416;2023-06-22T08:30:07;97141.00;;;27.78;49.22
45078;BME280;60508;42.622;25.416;2023-06-22T08:32:34;97153.53;;;27.75;49.78
45078;BME280;60508;42.622;25.416;2023-06-22T08:35:00;97134.69;;;27.65;49.94
45078;BME280;60508;42.622;25.416;2023-06-22T08:37:33;97143.75;;;27.65;50.23
45078;BME280;60508;42.622;25.416;2023-06-22T08:40:03;97144.44;;;27.62;50.64
45078;BME280;60508;42.622;25.416;2023-06-22T08:42:39;97149.88;;;27.59;50.22
45078;BME280;60508;42.622;25.416;2023-06-22T08:45:06;97147.66;;;27.64;50.70
45078;BME280;60508;42.622;25.416;2023-06-22T08:47:33;97145.03;;;27.68;50.21
45078;BME280;60508;42.622;25.416;2023-06-22T08:50:06;97146.72;;;27.73;50.54
45078;BME280;60508;42.622;25.416;2023-06-22T08:52:35;97153.50;;;27.87;50.82
45078;BME280;60508;42.622;25.416;2023-06-22T08:55:02;97153.84;;;27.98;51.40
45078;BME280;60508;42.622;25.416;2023-06-22T08:57:29;97158.69;;;28.01;51.70
45078;BME280;60508;42.622;25.416;2023-06-22T08:59:57;97149.00;;;28.08;51.51
45078;BME280;60508;42.622;25.416;2023-06-22T09:02:27;97148.31;;;28.11;50.25
45078;BME280;60508;42.622;25.416;2023-06-22T09:05:04;97147.25;;;28.15;50.02
45078;BME280;60508;42.622;25.416;2023-06-22T09:07:31;97149.16;;;28.27;50.20
45078;BME280;60508;42.622;25.416;2023-06-22T09:09:58;97141.59;;;28.52;50.18
45078;BME280;60508;42.622;25.416;2023-06-22T09:12:33;97134.91;;;28.82;47.60
45078;BME280;60508;42.622;25.416;2023-06-22T09:15:00;97142.59;;;28.88;47.75
45078;BME280;60508;42.622;25.416;2023-06-22T09:17:27;97137.75;;;28.85;47.60
45078;BME280;60508;42.622;25.416;2023-06-22T09:20:02;97138.81;;;28.81;47.17
45078;BME280;60508;42.622;25.416;2023-06-22T09:22:32;97134.56;;;28.83;45.22
45078;BME280;60508;42.622;25.416;2023-06-22T09:24:58;97137.78;;;29.01;45.00
45078;BME280;60508;42.622;25.416;2023-06-22T09:27:26;97138.69;;;29.21;44.72
45078;BME280;60508;42.622;25.416;2023-06-22T09:30:01;97130.84;;;29.23;43.19
45078;BME280;60508;42.622;25.416;2023-06-22T09:32:29;97135.72;;;29.14;43.84
45078;BME280;60508;42.622;25.416;2023-06-22T09:34:56;97136.63;;;29.02;43.94
45078;BME280;60508;42.622;25.416;2023-06-22T09:37:22;97132.22;;;28.85;43.46
45078;BME280;60508;42.622;25.416;2023-06-22T09:39:57;97133.03;;;28.70;42.34
45078;BME280;60508;42.622;25.416;2023-06-22T09:42:24;97141.31;;;28.70;43.00
45078;BME280;60508;42.622;25.416;2023-06-22T09:44:51;97127.59;;;28.73;44.27
45078;BME280;60508;42.622;25.416;2023-06-22T09:47:17;97131.94;;;28.74;41.83
45078;BME280;60508;42.622;25.416;2023-06-22T09:49:43;97129.47;;;28.85;43.18
45078;BME280;60508;42.622;25.416;2023-06-22T09:52:10;97140.19;;;29.03;44.97
45078;BME280;60508;42.622;25.416;2023-06-22T09:54:37;97134.75;;;29.06;45.20
45078;BME280;60508;42.622;25.416;2023-06-22T09:57:04;97122.25;;;28.96;45.83
45078;BME280;60508;42.622;25.416;2023-06-22T09:59:41;97150.63;;;28.93;46.80
45078;BME280;60508;42.622;25.416;2023-06-22T10:02:08;97142.88;;;28.99;42.65
45078;BME280;60508;42.622;25.416;2023-06-22T10:04:35;97134.38;;;29.08;41.88
45078;BME280;60508;42.622;25.416;2023-06-22T10:07:09;97124.69;;;29.30;41.59
45078;BME280;60508;42.622;25.416;2023-06-22T10:09:36;97127.47;;;29.30;40.25
45078;BME280;60508;42.622;25.416;2023-06-22T10:12:02;97125.94;;;29.17;41.10
45078;BME280;60508;42.622;25.416;2023-06-22T10:14:29;97128.97;;;28.95;41.86
45078;BME280;60508;42.622;25.416;2023-06-22T10:16:55;97124.19;;;28.80;42.23
45078;BME280;60508;42.622;25.416;2023-06-22T10:19:30;97129.44;;;28.69;44.21
45078;BME280;60508;42.622;25.416;2023-06-22T10:21:57;97124.78;;;28.57;42.92
45078;BME280;60508;42.622;25.416;2023-06-22T10:24:24;97119.84;;;28.51;42.37
45078;BME280;60508;42.622;25.416;2023-06-22T10:26:58;97129.97;;;28.47;41.67
45078;BME280;60508;42.622;25.416;2023-06-22T10:29:25;97125.16;;;28.72;42.20
45078;BME280;60508;42.622;25.416;2023-06-22T10:31:52;97131.06;;;28.70;39.53
45078;BME280;60508;42.622;25.416;2023-06-22T10:34:26;97121.13;;;28.69;40.75
45078;BME280;60508;42.622;25.416;2023-06-22T10:36:53;97124.44;;;28.59;42.48
45078;BME280;60508;42.622;25.416;2023-06-22T10:39:19;97126.94;;;28.64;43.46
45078;BME280;60508;42.622;25.416;2023-06-22T10:41:53;97125.09;;;29.00;43.64
45078;BME280;60508;42.622;25.416;2023-06-22T10:44:20;97116.03;;;29.47;41.79
45078;BME280;60508;42.622;25.416;2023-06-22T10:46:46;97117.66;;;29.68;40.18
45078;BME280;60508;42.622;25.416;2023-06-22T10:49:13;97104.09;;;29.79;40.11
45078;BME280;60508;42.622;25.416;2023-06-22T10:51:40;97114.16;;;30.07;40.20
45078;BME280;60508;42.622;25.416;2023-06-22T10:54:08;97097.13;;;30.44;40.11
45078;BME280;60508;42.622;25.416;2023-06-22T10:56:34;97102.47;;;30.75;39.63
45078;BME280;60508;42.622;25.416;2023-06-22T10:59:08;97106.94;;;30.80;38.52
45078;BME280;60508;42.622;25.416;2023-06-22T11:01:34;97098.13;;;30.55;38.20
45078;BME280;60508;42.622;25.416;2023-06-22T11:04:01;97104.03;;;30.34;39.02
45078;BME280;60508;42.622;25.416;2023-06-22T11:06:35;97103.09;;;30.07;39.00
45078;BME280;60508;42.622;25.416;2023-06-22T11:09:02;97105.13;;;29.74;38.98
45078;BME280;60508;42.622;25.416;2023-06-22T11:11:30;97099.06;;;29.49;40.45
45078;BME280;60508;42.622;25.416;2023-06-22T11:14:05;97101.00;;;29.48;40.89
45078;BME280;60508;42.622;25.416;2023-06-22T11:16:32;97092.25;;;29.46;40.95
45078;BME280;60508;42.622;25.416;2023-06-22T11:18:58;97099.66;;;29.42;40.31
45078;BME280;60508;42.622;25.416;2023-06-22T11:21:25;97099.94;;;29.21;39.66
45078;BME280;60508;42.622;25.416;2023-06-22T11:23:59;97099.22;;;29.08;39.65
45078;BME280;60508;42.622;25.416;2023-06-22T11:26:26;97105.38;;;29.02;40.58
45078;BME280;60508;42.622;25.416;2023-06-22T11:28:53;97098.69;;;29.03;41.64
45078;BME280;60508;42.622;25.416;2023-06-22T11:31:26;97093.25;;;29.06;42.31
45078;BME280;60508;42.622;25.416;2023-06-22T11:33:53;97098.25;;;29.32;41.59
45078;BME280;60508;42.622;25.416;2023-06-22T11:36:19;97093.00;;;29.79;40.79
45078;BME280;60508;42.622;25.416;2023-06-22T11:38:46;97088.38;;;30.02;40.51
45078;BME280;60508;42.622;25.416;2023-06-22T11:41:12;97091.13;;;30.22;40.29
45078;BME280;60508;42.622;25.416;2023-06-22T11:43:42;97089.53;;;30.21;40.41
45078;BME280;60508;42.622;25.416;2023-06-22T11:46:08;97082.09;;;29.86;41.74
45078;BME280;60508;42.622;25.416;2023-06-22T11:48:41;97091.09;;;29.16;42.21
45078;BME280;60508;42.622;25.416;2023-06-22T11:51:07;97102.16;;;28.84;43.32
45078;BME280;60508;42.622;25.416;2023-06-22T11:53:34;97095.38;;;28.65;43.55
45078;BME280;60508;42.622;25.416;2023-06-22T11:56:01;97110.00;;;28.53;43.93
45078;BME280;60508;42.622;25.416;2023-06-22T11:58:28;97090.91;;;28.61;44.36
45078;BME280;60508;42.622;25.416;2023-06-22T12:00:55;97089.97;;;29.01;44.27
45078;BME280;60508;42.622;25.416;2023-06-22T12:03:21;97090.31;;;29.66;41.90
45078;BME280;60508;42.622;25.416;2023-06-22T12:05:54;97092.97;;;30.14;38.64
45078;BME280;60508;42.622;25.416;2023-06-22T12:08:21;97086.84;;;30.44;38.50
45078;BME280;60508;42.622;25.416;2023-06-22T12:10:49;97093.31;;;30.52;36.69
45078;BME280;60508;42.622;25.416;2023-06-22T12:13:19;97089.38;;;30.53;36.00
45078;BME280;60508;42.622;25.416;2023-06-22T12:15:48;97090.81;;;30.66;35.22
45078;BME280;60508;42.622;25.416;2023-06-22T12:18:14;97079.25;;;30.84;34.69
45078;BME280;60508;42.622;25.416;2023-06-22T12:20:41;97083.22;;;31.06;35.37
45078;BME280;60508;42.622;25.416;2023-06-22T12:23:08;97074.03;;;31.02;37.29
45078;BME280;60508;42.622;25.416;2023-06-22T12:25:34;97078.03;;;30.62;38.00
45078;BME280;60508;42.622;25.416;2023-06-22T12:28:01;97074.88;;;30.20;39.93
45078;BME280;60508;42.622;25.416;2023-06-22T12:30:27;97070.34;;;30.32;39.82
45078;BME280;60508;42.622;25.416;2023-06-22T12:33:01;97082.13;;;30.68;39.47
45078;BME280;60508;42.622;25.416;2023-06-22T12:35:34;97074.75;;;30.75;39.79
45078;BME280;60508;42.622;25.416;2023-06-22T12:38:01;97076.84;;;30.82;39.23
45078;BME280;60508;42.622;25.416;2023-06-22T12:40:29;97076.19;;;30.92;39.08
45078;BME280;60508;42.622;25.416;2023-06-22T12:42:55;97069.88;;;30.69;38.95
45078;BME280;60508;42.622;25.416;2023-06-22T12:45:30;97070.56;;;30.23;40.40
45078;BME280;60508;42.622;25.416;2023-06-22T12:48:00;97063.50;;;29.86;41.40
45078;BME280;60508;42.622;25.416;2023-06-22T12:50:26;97054.31;;;29.66;42.01
45078;BME280;60508;42.622;25.416;2023-06-22T12:52:53;97074.88;;;29.65;42.48
45078;BME280;60508;42.622;25.416;2023-06-22T12:55:22;97081.22;;;29.30;43.24
45078;BME280;60508;42.622;25.416;2023-06-22T12:57:48;97079.59;;;29.13;43.34
45078;BME280;60508;42.622;25.416;2023-06-22T13:00:23;97081.56;;;28.97;43.43
45078;BME280;60508;42.622;25.416;2023-06-22T13:02:50;97077.81;;;28.89;44.36
45078;BME280;60508;42.622;25.416;2023-06-22T13:05:17;97082.88;;;28.87;45.16